Time;durP1;ratioP1;P1;durP2;ratioP2;P2;SDS_P1;SDS_P2;PMS_P1;PMS_P2;Temp;Humidity;BMP_temperature;BMP_pressure;BME280_temperature;BME280_humidity;BME280_pressure;Samples;Min_cycle;Max_cycle;Signal;HPM_P1;HPM_P2
2022/06/01 00:02:28;;;;;;;4.78;3.72;;;15.30;79.80;;;;;;10535058;28;20032;-57
2022/06/01 00:07:28;;;;;;;5.63;3.78;;;15.30;79.90;;;;;;10535009;28;20384;-59
2022/06/01 00:12:29;;;;;;;5.95;3.88;;;15.30;80.00;;;;;;10536572;28;20123;-58
2022/06/01 00:17:31;;;;;;;4.53;3.50;;;15.30;80.00;;;;;;10542667;28;20123;-59
2022/06/01 00:22:31;;;;;;;3.85;3.17;;;15.30;80.00;;;;;;10542442;28;20131;-57
2022/06/01 00:27:32;;;;;;;5.13;3.78;;;15.30;80.00;;;;;;10542119;28;20151;-57
2022/06/01 00:32:33;;;;;;;4.82;3.80;;;15.30;80.10;;;;;;10542058;28;20032;-59
2022/06/01 00:37:34;;;;;;;4.95;3.58;;;15.30;80.10;;;;;;10542025;28;20078;-57
2022/06/01 00:42:37;;;;;;;5.60;3.92;;;15.20;80.10;;;;;;10539389;28;20040;-58
2022/06/01 00:47:38;;;;;;;5.00;4.20;;;15.20;80.20;;;;;;10541453;28;20075;-59
2022/06/01 00:52:45;;;;;;;5.13;4.00;;;15.20;80.30;;;;;;10541237;28;20056;-57
2022/06/01 00:57:51;;;;;;;7.33;4.57;;;15.20;80.40;;;;;;10541174;28;20177;-59
2022/06/01 01:02:55;;;;;;;6.28;3.60;;;15.20;80.40;;;;;;10540793;28;20028;-57
2022/06/01 01:07:58;;;;;;;5.50;3.65;;;15.10;80.40;;;;;;10540626;28;20522;-58
2022/06/01 01:13:04;;;;;;;4.97;4.28;;;15.20;80.50;;;;;;10540523;28;20024;-59
2022/06/01 01:18:09;;;;;;;5.13;3.80;;;15.10;80.50;;;;;;10540364;28;20495;-60
2022/06/01 01:23:49;;;;;;;5.75;3.83;;;15.10;80.50;;;;;;10539738;28;20515;-57
2022/06/01 01:28:50;;;;;;;5.65;4.32;;;15.10;80.80;;;;;;10539983;28;20055;-60
2022/06/01 01:33:54;;;;;;;4.78;3.90;;;15.10;80.60;;;;;;10539731;28;20131;-59
2022/06/01 01:39:09;;;;;;;4.07;3.70;;;15.10;80.60;;;;;;10539546;28;20419;-58
2022/06/01 01:44:13;;;;;;;5.22;4.03;;;15.10;80.70;;;;;;10539240;28;20052;-58
2022/06/01 01:49:16;;;;;;;5.68;3.97;;;15.10;80.70;;;;;;10539081;28;20397;-57
2022/06/01 01:54:31;;;;;;;4.63;3.97;;;15.10;80.80;;;;;;10538803;28;20051;-59
2022/06/01 02:00:08;;;;;;;3.65;3.35;;;15.00;80.80;;;;;;10538694;28;20031;-57
2022/06/01 02:16:01;;;;;;;4.68;3.38;;;15.00;80.80;;;;;;10537868;28;20039;-58
2022/06/01 02:21:07;;;;;;;5.18;3.80;;;15.00;80.90;;;;;;10537947;28;20074;-60
2022/06/01 02:26:09;;;;;;;5.63;3.42;;;15.00;81.00;;;;;;10537515;28;20036;-57
2022/06/01 02:31:11;;;;;;;5.38;3.90;;;15.00;81.00;;;;;;10537279;28;20074;-61
2022/06/01 02:36:17;;;;;;;4.40;3.38;;;15.00;81.10;;;;;;10536597;28;20030;-58
2022/06/01 02:46:37;;;;;;;4.65;3.70;;;15.00;81.70;;;;;;10536978;28;20496;-57
2022/06/01 02:51:38;;;;;;;5.55;3.30;;;15.00;81.20;;;;;;10536783;28;20102;-60
2022/06/01 02:56:39;;;;;;;4.25;3.50;;;15.00;81.20;;;;;;10536778;28;20067;-60
2022/06/01 03:01:39;;;;;;;5.80;3.60;;;14.90;81.20;;;;;;10536345;28;20046;-56
2022/06/01 03:06:40;;;;;;;5.55;3.95;;;14.90;81.30;;;;;;10536377;28;20047;-59
2022/06/01 03:11:41;;;;;;;5.45;3.97;;;14.90;81.40;;;;;;10536231;28;20028;-58
2022/06/01 03:16:42;;;;;;;6.68;4.25;;;14.90;81.50;;;;;;10536177;28;20032;-57
2022/06/01 03:21:43;;;;;;;5.97;4.10;;;14.90;81.50;;;;;;10536115;28;20484;-57
2022/06/01 03:26:44;;;;;;;6.07;3.90;;;14.90;81.60;;;;;;10535872;28;20036;-60
2022/06/01 03:31:44;;;;;;;4.65;3.80;;;14.90;81.70;;;;;;10535875;28;20036;-59
2022/06/01 03:36:46;;;;;;;5.80;4.20;;;14.90;81.70;;;;;;10535805;28;20123;-59
2022/06/01 03:41:46;;;;;;;5.53;4.00;;;14.80;81.90;;;;;;10535546;28;20528;-59
2022/06/01 03:46:47;;;;;;;5.28;4.15;;;14.80;81.70;;;;;;10537430;28;20072;-57
2022/06/01 03:51:48;;;;;;;6.15;4.70;;;14.80;81.80;;;;;;10543851;28;20059;-60
2022/06/01 03:56:48;;;;;;;6.95;5.00;;;14.80;81.90;;;;;;10543620;28;20127;-60
2022/06/01 04:01:49;;;;;;;5.88;4.43;;;14.80;81.90;;;;;;10543356;28;20460;-60
2022/06/01 04:06:50;;;;;;;5.32;4.38;;;14.80;82.00;;;;;;10543274;28;20048;-57
2022/06/01 04:11:52;;;;;;;6.78;4.85;;;14.80;82.00;;;;;;10542795;28;20036;-59
2022/06/01 04:16:53;;;;;;;6.30;4.63;;;14.80;82.10;;;;;;10542703;28;20107;-58
2022/06/01 04:21:54;;;;;;;6.97;5.15;;;14.80;82.10;;;;;;10542668;28;20173;-59
2022/06/01 04:26:56;;;;;;;5.13;4.28;;;14.80;82.10;;;;;;10542419;28;20040;-57
2022/06/01 04:32:07;;;;;;;6.38;5.20;;;14.80;82.10;;;;;;10542393;28;20039;-59
2022/06/01 04:37:08;;;;;;;8.43;5.53;;;14.80;82.30;;;;;;10541977;28;20488;-57
2022/06/01 04:42:09;;;;;;;8.75;5.30;;;14.80;82.20;;;;;;10541749;28;20052;-59
2022/06/01 04:47:10;;;;;;;7.60;5.28;;;14.80;82.20;;;;;;10541632;28;20135;-60
2022/06/01 04:52:10;;;;;;;6.82;5.47;;;14.80;82.20;;;;;;10541632;28;20039;-59
2022/06/01 04:57:11;;;;;;;7.47;5.13;;;14.80;82.20;;;;;;10541010;28;20135;-58
2022/06/01 05:02:12;;;;;;;8.27;5.50;;;14.80;82.30;;;;;;10540373;28;20028;-59
2022/06/01 05:07:13;;;;;;;7.78;5.40;;;14.80;82.30;;;;;;10540908;28;20052;-58
2022/06/01 05:12:13;;;;;;;9.13;5.30;;;14.80;82.30;;;;;;10522758;28;20091;-59
2022/06/01 05:17:14;;;;;;;8.68;5.50;;;14.80;82.30;;;;;;10540529;28;20536;-59
2022/06/01 05:22:15;;;;;;;7.43;5.57;;;14.80;82.30;;;;;;10540320;28;20069;-60
2022/06/01 05:27:15;;;;;;;7.85;5.43;;;14.90;82.30;;;;;;10539995;28;20443;-57
2022/06/01 05:32:17;;;;;;;8.52;6.30;;;14.90;82.30;;;;;;10539932;28;20043;-60
2022/06/01 05:37:17;;;;;;;8.35;5.53;;;14.90;82.30;;;;;;10539565;28;20109;-57
2022/06/01 05:42:18;;;;;;;12.98;6.93;;;14.90;82.40;;;;;;10539587;28;20047;-59
2022/06/01 05:47:19;;;;;;;8.95;5.85;;;14.90;82.40;;;;;;10539131;28;20079;-57
2022/06/01 05:52:19;;;;;;;10.18;6.75;;;14.90;82.50;;;;;;10538806;28;20021;-58
2022/06/01 05:57:20;;;;;;;8.05;5.82;;;14.90;82.50;;;;;;10538701;28;20036;-60
2022/06/01 06:02:21;;;;;;;9.98;5.88;;;14.90;82.40;;;;;;10538470;28;20044;-60
2022/06/01 06:07:22;;;;;;;9.40;5.63;;;14.90;82.40;;;;;;10538256;28;20059;-59
2022/06/01 06:12:23;;;;;;;6.70;4.72;;;14.90;82.40;;;;;;10537154;28;20055;-57
2022/06/01 06:17:23;;;;;;;7.53;5.55;;;15.00;82.30;;;;;;10538132;28;20039;-61
2022/06/01 06:22:25;;;;;;;7.53;5.18;;;15.00;82.30;;;;;;10537750;28;20060;-60
2022/06/01 06:27:27;;;;;;;7.43;5.00;;;15.00;82.20;;;;;;10537389;28;20048;-58
2022/06/01 06:32:28;;;;;;;8.18;5.05;;;15.00;82.80;;;;;;10537233;28;20098;-56
2022/06/01 06:37:28;;;;;;;8.35;4.55;;;15.00;82.20;;;;;;10537435;28;20039;-57
2022/06/01 06:42:29;;;;;;;6.50;4.70;;;15.00;82.80;;;;;;10536698;28;20070;-57
2022/06/01 06:47:34;;;;;;;7.25;4.30;;;15.00;82.20;;;;;;10536667;28;20046;-58
2022/06/01 06:52:34;;;;;;;6.63;4.43;;;15.00;82.20;;;;;;10536564;28;20055;-62
2022/06/01 06:57:35;;;;;;;6.05;3.80;;;15.10;82.20;;;;;;10536591;28;20047;-61
2022/06/01 07:02:36;;;;;;;5.53;3.95;;;15.10;82.20;;;;;;10536746;28;20066;-61
2022/06/01 07:07:37;;;;;;;4.97;3.63;;;15.10;82.20;;;;;;10536236;28;20526;-61
2022/06/01 07:12:38;;;;;;;5.95;3.97;;;15.10;82.20;;;;;;10536327;28;20040;-59
2022/06/01 07:17:39;;;;;;;4.45;3.45;;;15.10;82.10;;;;;;10535988;28;20412;-60
2022/06/01 07:22:39;;;;;;;4.50;3.40;;;15.20;82.10;;;;;;10539562;28;20040;-58
2022/06/01 07:27:40;;;;;;;5.32;3.53;;;15.10;82.00;;;;;;10544957;28;20044;-59
2022/06/01 07:32:44;;;;;;;4.47;3.30;;;15.10;82.10;;;;;;10544839;28;20028;-59
2022/06/01 07:43:07;;;;;;;6.13;3.08;;;15.20;82.80;;;;;;10543780;28;20052;-60
2022/06/01 07:48:09;;;;;;;3.92;2.75;;;15.10;82.20;;;;;;10543709;28;20416;-69
2022/06/01 07:53:10;;;;;;;5.03;2.72;;;15.10;82.30;;;;;;10543464;28;20500;-58
2022/06/01 07:58:11;;;;;;;4.05;2.70;;;15.10;82.40;;;;;;10542795;28;20055;-58
2022/06/01 08:03:14;;;;;;;4.53;3.15;;;15.10;82.50;;;;;;10543223;28;20162;-57
2022/06/01 08:08:15;;;;;;;4.55;2.50;;;15.10;82.50;;;;;;10543012;28;20503;-60
2022/06/01 08:13:16;;;;;;;4.50;2.97;;;15.10;82.70;;;;;;10542740;28;20043;-58
2022/06/01 08:18:23;;;;;;;5.85;2.72;;;15.10;82.70;;;;;;10542500;28;20115;-59
2022/06/01 08:23:27;;;;;;;4.95;2.58;;;15.10;82.90;;;;;;10542369;28;20136;-57
2022/06/01 08:28:28;;;;;;;4.13;2.80;;;15.10;82.80;;;;;;10542051;28;20453;-57
2022/06/01 08:33:28;;;;;;;3.47;2.25;;;15.20;82.90;;;;;;10540945;28;20043;-61
2022/06/01 08:38:29;;;;;;;3.38;2.00;;;15.20;83.00;;;;;;10541672;28;20552;-60
2022/06/01 08:44:07;;;;;;;4.18;2.25;;;15.30;83.10;;;;;;10541601;28;20500;-57
2022/06/01 08:49:15;;;;;;;3.80;2.42;;;15.40;83.00;;;;;;10514235;28;20067;-60
2022/06/01 08:54:16;;;;;;;4.70;2.10;;;15.50;83.00;;;;;;10541267;28;20020;-60
2022/06/01 08:59:22;;;;;;;2.50;1.90;;;15.50;82.90;;;;;;10541117;28;20497;-60
2022/06/01 09:04:34;;;;;;;2.58;1.90;;;15.50;83.00;;;;;;10540804;28;20093;-60
2022/06/01 09:10:19;;;;;;;4.30;2.03;;;15.50;83.00;;;;;;10540805;28;20347;-62
2022/06/01 09:15:27;;;;;;;2.63;1.38;;;15.50;85.10;;;;;;10534649;28;20492;-62
2022/06/01 09:25:51;;;;;;;2.47;1.58;;;15.30;86.90;;;;;;10539871;28;19924;-59
2022/06/01 09:30:59;;;;;;;4.38;1.73;;;15.40;85.10;;;;;;10539758;28;20032;-66
2022/06/01 09:36:09;;;;;;;3.10;1.80;;;15.40;85.50;;;;;;10539344;28;20032;-58
2022/06/01 09:41:17;;;;;;;1.92;1.50;;;15.30;86.10;;;;;;10538828;28;20087;-58
2022/06/01 09:46:35;;;;;;;1.90;1.43;;;15.30;85.50;;;;;;10538669;28;20044;-62
2022/06/01 09:51:39;;;;;;;2.90;1.93;;;15.40;85.60;;;;;;10539079;28;20277;-59
2022/06/01 09:56:45;;;;;;;2.47;1.88;;;15.50;85.30;;;;;;10538995;28;20031;-63
2022/06/01 10:07:17;;;;;;;1.90;1.58;;;15.90;84.60;;;;;;10538285;28;20047;-62
2022/06/01 10:12:36;;;;;;;2.92;1.58;;;16.00;84.30;;;;;;10537896;28;20430;-61
2022/06/01 10:17:42;;;;;;;1.73;1.40;;;16.00;84.20;;;;;;10538063;28;20039;-57
2022/06/01 10:22:55;;;;;;;1.80;1.45;;;16.00;84.30;;;;;;10537594;28;20024;-59
2022/06/01 10:28:36;;;;;;;1.48;1.05;;;16.00;84.40;;;;;;10537638;28;20365;-59
2022/06/01 10:33:43;;;;;;;1.63;1.17;;;15.90;84.80;;;;;;10526543;28;20044;-59
2022/06/01 10:38:52;;;;;;;3.53;1.20;;;15.90;84.60;;;;;;10537361;28;20025;-58
2022/06/01 10:44:15;;;;;;;2.95;1.00;;;15.80;84.70;;;;;;10536789;28;20031;-59
2022/06/01 10:50:01;;;;;;;1.85;1.17;;;15.80;84.70;;;;;;10537010;28;20055;-59
2022/06/01 10:55:08;;;;;;;1.67;1.05;;;15.80;84.70;;;;;;10490192;28;20028;-59
2022/06/01 11:00:19;;;;;;;1.42;1.08;;;15.90;84.40;;;;;;10526182;28;20101;-57
2022/06/01 11:05:36;;;;;;;1.52;0.95;;;15.90;84.30;;;;;;10535309;28;20106;-60
2022/06/01 11:10:42;;;;;;;0.95;0.77;;;16.00;84.00;;;;;;10535941;28;20028;-60
2022/06/01 11:16:00;;;;;;;2.05;0.95;;;16.10;83.80;;;;;;10536133;28;20032;-60
2022/06/01 11:21:33;;;;;;;1.33;0.90;;;16.20;83.60;;;;;;10535988;28;20036;-60
2022/06/01 11:26:49;;;;;;;1.02;0.77;;;16.20;83.60;;;;;;10535830;28;20058;-58
2022/06/01 11:31:52;;;;;;;0.75;0.70;;;16.20;83.60;;;;;;10535890;28;20107;-59
2022/06/01 11:37:10;;;;;;;1.65;0.70;;;16.10;83.60;;;;;;10535643;28;20040;-60
2022/06/01 11:42:19;;;;;;;0.90;0.73;;;16.00;83.70;;;;;;10535206;28;20099;-59
2022/06/01 11:47:22;;;;;;;3.45;1.02;;;16.10;83.70;;;;;;10535534;28;20050;-58
2022/06/01 11:52:23;;;;;;;0.70;0.70;;;16.10;83.70;;;;;;10535619;28;20025;-60
2022/06/01 11:57:39;;;;;;;0.98;0.70;;;16.20;83.60;;;;;;10535559;28;20028;-57
2022/06/01 12:02:50;;;;;;;2.25;1.35;;;16.30;83.50;;;;;;10535381;28;20028;-58
2022/06/01 12:08:15;;;;;;;1.10;0.73;;;16.30;83.30;;;;;;10536988;28;20447;-59
2022/06/01 12:13:50;;;;;;;2.78;0.90;;;16.40;83.10;;;;;;10542943;28;20066;-59
2022/06/01 12:19:08;;;;;;;2.38;1.08;;;16.50;83.10;;;;;;10542548;28;20562;-57
2022/06/01 12:30:13;;;;;;;3.35;0.90;;;16.70;83.30;;;;;;10542265;28;20028;-58
2022/06/01 12:35:17;;;;;;;1.55;1.10;;;16.90;83.20;;;;;;10541942;28;20032;-59
2022/06/01 12:40:21;;;;;;;1.65;0.85;;;16.90;82.70;;;;;;10541500;28;20051;-58
2022/06/01 12:45:40;;;;;;;2.55;1.27;;;17.00;82.60;;;;;;10541366;28;20076;-59
2022/06/01 12:50:53;;;;;;;2.47;1.23;;;17.10;82.80;;;;;;10541286;28;20028;-57
2022/06/01 12:56:07;;;;;;;2.33;1.15;;;17.10;82.90;;;;;;10539659;28;20043;-59
2022/06/01 13:01:09;;;;;;;1.92;1.20;;;17.10;83.10;;;;;;10539481;28;20096;-58
2022/06/01 13:06:15;;;;;;;0.88;0.80;;;17.10;82.80;;;;;;10539443;28;20417;-60
2022/06/01 13:11:18;;;;;;;2.15;1.20;;;16.90;83.20;;;;;;10539071;28;20136;-60
2022/06/01 13:16:21;;;;;;;1.38;0.88;;;16.90;83.40;;;;;;10539015;28;20116;-58
2022/06/01 13:21:32;;;;;;;2.00;1.13;;;16.90;83.50;;;;;;10538478;28;20167;-57
2022/06/01 13:26:33;;;;;;;1.38;0.93;;;16.90;83.60;;;;;;10538610;28;20510;-59
2022/06/01 13:31:34;;;;;;;4.25;0.75;;;17.10;83.40;;;;;;10538397;28;20085;-57
2022/06/01 13:36:40;;;;;;;1.25;1.00;;;17.20;83.10;;;;;;10537958;28;20040;-58
2022/06/01 13:41:54;;;;;;;1.45;1.30;;;17.40;81.50;;;;;;10534999;28;20040;-62
2022/06/01 13:46:55;;;;;;;1.48;1.30;;;17.70;80.50;;;;;;10536937;28;20377;-61
2022/06/01 13:51:59;;;;;;;1.92;1.42;;;17.40;80.50;;;;;;10537266;28;20032;-58
2022/06/01 13:57:15;;;;;;;5.53;2.10;;;17.10;81.10;;;;;;10537208;28;20043;-69
2022/06/01 14:02:22;;;;;;;1.30;0.90;;;16.90;81.80;;;;;;10536922;28;20119;-60
2022/06/01 14:07:23;;;;;;;2.72;1.00;;;16.60;81.80;;;;;;10536302;28;20557;-65
2022/06/01 14:12:24;;;;;;;1.35;0.80;;;16.30;83.50;;;;;;10536321;28;20036;-62
2022/06/01 14:17:27;;;;;;;1.05;0.70;;;16.20;83.60;;;;;;10536433;28;20040;-63
2022/06/01 14:22:28;;;;;;;4.55;0.90;;;16.30;83.80;;;;;;10535991;28;20032;-64
2022/06/01 14:32:50;;;;;;;2.58;1.05;;;16.80;84.90;;;;;;10534598;28;20420;-64
2022/06/01 14:37:50;;;;;;;2.60;0.80;;;16.90;84.50;;;;;;10535507;28;20067;-61
2022/06/01 14:42:51;;;;;;;2.13;0.80;;;17.10;84.30;;;;;;10535021;28;20066;-62
2022/06/01 14:47:51;;;;;;;1.05;0.80;;;17.20;83.90;;;;;;10534715;28;20101;-61
2022/06/01 14:52:53;;;;;;;1.42;0.73;;;17.40;83.60;;;;;;10535191;28;20119;-62
2022/06/01 14:57:54;;;;;;;2.55;0.80;;;17.50;83.50;;;;;;10535060;28;20036;-61
2022/06/01 15:02:56;;;;;;;1.70;0.90;;;17.40;83.70;;;;;;10534789;28;20484;-59
2022/06/01 15:07:56;;;;;;;2.03;0.90;;;17.40;83.90;;;;;;10534632;28;20421;-60
2022/06/01 15:12:57;;;;;;;1.00;0.70;;;17.40;84.20;;;;;;10534459;28;20039;-59
2022/06/01 15:17:58;;;;;;;2.83;1.10;;;17.30;84.30;;;;;;10534505;28;20036;-59
2022/06/01 15:22:58;;;;;;;2.42;0.73;;;17.30;84.40;;;;;;10534175;28;20570;-59
2022/06/01 15:28:01;;;;;;;3.08;0.95;;;17.30;84.50;;;;;;10534282;28;20051;-59
2022/06/01 15:43:41;;;;;;;1.20;0.80;;;17.30;84.60;;;;;;10550108;28;20056;-60
2022/06/01 15:48:42;;;;;;;3.10;0.80;;;17.30;84.40;;;;;;10542389;28;20042;-58
2022/06/01 15:53:44;;;;;;;1.00;0.70;;;17.30;84.30;;;;;;10542028;28;20111;-58
2022/06/01 15:58:45;;;;;;;1.85;0.90;;;17.30;84.30;;;;;;10542065;28;20040;-59
2022/06/01 16:03:48;;;;;;;4.53;0.90;;;17.40;84.20;;;;;;10541741;28;20040;-60
2022/06/01 16:08:49;;;;;;;2.08;0.90;;;17.40;84.00;;;;;;10541391;28;20090;-60
2022/06/01 16:13:49;;;;;;;1.55;0.88;;;17.40;83.90;;;;;;10541352;28;20043;-61
2022/06/01 16:18:50;;;;;;;1.50;1.00;;;17.40;83.90;;;;;;10541523;28;20037;-59
2022/06/01 16:23:51;;;;;;;3.47;0.95;;;17.40;84.10;;;;;;10541162;28;20032;-58
2022/06/01 16:28:52;;;;;;;2.10;0.90;;;17.30;84.10;;;;;;10540959;28;20036;-61
2022/06/01 16:33:54;;;;;;;1.88;1.20;;;17.30;84.20;;;;;;10540653;28;20380;-60
2022/06/01 16:38:57;;;;;;;2.20;0.82;;;17.30;84.20;;;;;;10540403;28;20047;-59
2022/06/01 16:43:58;;;;;;;1.48;0.90;;;17.30;84.20;;;;;;10540056;28;20036;-61
2022/06/01 16:48:58;;;;;;;3.10;1.27;;;17.20;84.20;;;;;;10540064;28;20046;-59
2022/06/01 16:53:59;;;;;;;3.00;1.13;;;17.30;84.40;;;;;;10539057;28;20138;-59
2022/06/01 16:59:00;;;;;;;3.00;1.00;;;17.20;84.30;;;;;;10539718;28;20123;-60
2022/06/01 17:04:01;;;;;;;2.03;0.90;;;17.20;85.00;;;;;;10539395;28;20067;-60
2022/06/01 17:09:05;;;;;;;2.95;1.15;;;17.20;84.30;;;;;;10539294;28;20028;-59
2022/06/01 17:14:07;;;;;;;2.88;1.58;;;17.10;84.50;;;;;;10539003;28;20511;-59
2022/06/01 17:19:09;;;;;;;4.60;1.50;;;17.00;84.50;;;;;;10539086;28;20044;-61
2022/06/01 17:24:10;;;;;;;2.83;1.10;;;16.90;84.80;;;;;;10538657;28;20120;-59
2022/06/01 17:29:11;;;;;;;2.00;0.90;;;16.90;84.70;;;;;;10538530;28;20453;-58
2022/06/01 17:34:11;;;;;;;3.05;1.02;;;16.90;84.60;;;;;;10537608;28;20051;-59
2022/06/01 17:39:12;;;;;;;2.10;1.15;;;16.90;84.50;;;;;;10537939;28;20067;-59
2022/06/01 17:44:13;;;;;;;2.25;1.00;;;16.90;84.50;;;;;;10537764;28;20032;-61
2022/06/01 17:49:14;;;;;;;2.03;0.82;;;16.90;84.40;;;;;;10537381;28;20054;-63
2022/06/01 17:54:15;;;;;;;1.90;0.90;;;16.90;84.20;;;;;;10537160;28;20051;-58
2022/06/01 17:59:16;;;;;;;0.80;0.68;;;16.90;84.20;;;;;;10537044;28;20535;-59
2022/06/01 18:04:17;;;;;;;1.08;0.68;;;16.90;84.20;;;;;;10537036;28;20032;-59
2022/06/01 18:09:23;;;;;;;1.13;0.90;;;16.90;84.30;;;;;;10536792;28;20036;-59
2022/06/01 18:14:23;;;;;;;1.35;0.80;;;16.80;84.20;;;;;;10536486;28;20036;-60
2022/06/01 18:19:25;;;;;;;1.30;1.08;;;16.80;84.30;;;;;;10536488;28;20464;-60
2022/06/01 18:24:26;;;;;;;2.65;1.00;;;16.70;84.30;;;;;;10536095;28;20492;-58
2022/06/01 18:29:27;;;;;;;2.13;1.40;;;16.70;84.40;;;;;;10536348;28;20063;-58
2022/06/01 18:34:28;;;;;;;2.42;1.15;;;16.60;84.40;;;;;;10535875;28;20087;-58
2022/06/01 18:39:29;;;;;;;1.50;1.02;;;16.60;84.50;;;;;;10535376;28;20135;-58
2022/06/01 18:44:29;;;;;;;1.90;1.48;;;16.60;84.60;;;;;;10535486;28;20036;-59
2022/06/01 18:49:30;;;;;;;1.30;1.20;;;16.60;84.70;;;;;;10535319;28;20093;-59
2022/06/01 18:54:34;;;;;;;1.17;1.00;;;16.60;84.70;;;;;;10535062;28;20036;-59
2022/06/01 19:04:54;;;;;;;2.42;1.10;;;16.50;84.70;;;;;;10534863;28;20044;-60
2022/06/01 19:09:54;;;;;;;1.60;1.25;;;16.60;84.80;;;;;;10534818;28;20551;-60
2022/06/01 19:14:56;;;;;;;1.90;1.27;;;16.50;84.70;;;;;;10534377;28;20509;-61
2022/06/01 19:19:57;;;;;;;2.35;1.60;;;16.50;84.80;;;;;;10533803;28;20033;-61
2022/06/01 19:24:59;;;;;;;1.20;1.10;;;16.50;85.00;;;;;;10534299;28;20052;-60
2022/06/01 19:30:00;;;;;;;2.10;1.45;;;16.40;85.10;;;;;;10534298;28;20040;-59
2022/06/01 19:35:02;;;;;;;3.20;1.35;;;16.40;85.10;;;;;;10534142;28;20052;-60
2022/06/01 19:45:23;;;;;;;2.92;1.58;;;16.30;85.30;;;;;;10533909;28;20083;-62
2022/06/01 19:50:26;;;;;;;2.75;1.30;;;16.30;85.50;;;;;;10534174;28;20059;-58
2022/06/01 19:55:29;;;;;;;2.85;1.92;;;16.20;85.50;;;;;;10533984;28;20039;-59
2022/06/01 20:00:31;;;;;;;2.05;1.70;;;16.20;85.70;;;;;;10533742;28;20115;-59
2022/06/01 20:05:32;;;;;;;2.63;1.55;;;16.20;85.80;;;;;;10533832;28;20531;-59
2022/06/01 20:10:33;;;;;;;3.00;1.98;;;16.10;85.90;;;;;;10533313;28;20048;-60
2022/06/01 20:15:34;;;;;;;2.60;1.90;;;16.10;86.00;;;;;;10533723;28;20492;-62
2022/06/01 20:20:35;;;;;;;2.45;1.85;;;16.10;86.00;;;;;;10534949;28;20071;-59
2022/06/01 20:25:38;;;;;;;2.22;1.88;;;16.00;86.10;;;;;;10534602;28;20146;-58
2022/06/01 20:30:39;;;;;;;2.45;1.77;;;16.00;86.20;;;;;;10538164;28;20082;-62
2022/06/01 20:35:39;;;;;;;3.20;2.20;;;16.00;86.20;;;;;;10542044;28;20081;-58
2022/06/01 20:40:41;;;;;;;2.45;2.00;;;15.90;86.20;;;;;;10541890;28;20044;-58
2022/06/01 20:45:42;;;;;;;3.42;2.42;;;15.90;86.30;;;;;;10541846;28;20504;-59
2022/06/01 20:50:43;;;;;;;3.05;2.30;;;15.90;86.40;;;;;;10541505;28;20024;-60
2022/06/01 20:55:44;;;;;;;3.83;2.40;;;15.90;86.50;;;;;;10541428;28;20035;-60
2022/06/01 21:00:45;;;;;;;3.35;2.38;;;15.80;86.40;;;;;;10540871;28;20105;-59
2022/06/01 21:05:46;;;;;;;4.03;2.00;;;15.80;86.40;;;;;;10541100;28;20088;-60
2022/06/01 21:10:47;;;;;;;2.90;2.10;;;15.80;86.50;;;;;;10540896;28;20063;-61
2022/06/01 21:15:48;;;;;;;2.50;1.80;;;15.70;86.50;;;;;;10540472;28;20206;-57
2022/06/01 21:20:49;;;;;;;2.50;2.10;;;15.80;86.50;;;;;;10540592;28;20051;-59
2022/06/01 21:25:51;;;;;;;2.80;2.03;;;15.70;86.50;;;;;;10540313;28;20423;-58
2022/06/01 21:30:51;;;;;;;4.10;2.40;;;15.70;86.50;;;;;;10540318;28;20040;-62
2022/06/01 21:35:55;;;;;;;3.22;2.40;;;15.70;86.60;;;;;;10539730;28;20032;-58
2022/06/01 21:40:55;;;;;;;4.22;2.83;;;15.70;86.60;;;;;;10538956;28;20056;-58
2022/06/01 21:45:56;;;;;;;3.92;2.30;;;15.60;86.60;;;;;;10539486;28;20139;-60
2022/06/01 21:50:57;;;;;;;4.05;2.30;;;15.60;86.70;;;;;;10539105;28;20028;-61
2022/06/01 21:55:57;;;;;;;2.72;2.40;;;15.60;86.70;;;;;;10539322;28;20130;-61
2022/06/01 22:00:59;;;;;;;3.72;2.90;;;15.60;86.70;;;;;;10538735;28;20404;-60
2022/06/01 22:05:59;;;;;;;4.43;3.08;;;15.50;86.70;;;;;;10538431;28;20044;-61
2022/06/01 22:16:20;;;;;;;3.33;2.95;;;15.40;86.70;;;;;;10538425;28;20076;-58
2022/06/01 22:21:21;;;;;;;3.60;2.72;;;15.40;86.60;;;;;;10538714;28;20086;-59
2022/06/01 22:26:23;;;;;;;4.07;2.88;;;15.40;86.70;;;;;;10538093;28;20040;-62
2022/06/01 22:31:24;;;;;;;3.10;2.78;;;15.40;86.70;;;;;;10537786;28;20039;-60
2022/06/01 22:41:53;;;;;;;3.67;2.63;;;15.30;86.60;;;;;;10537155;28;20529;-60
2022/06/01 22:46:59;;;;;;;4.45;3.00;;;15.30;86.60;;;;;;10537174;28;20036;-58
2022/06/01 22:52:02;;;;;;;3.00;2.60;;;15.30;86.70;;;;;;10536375;28;20039;-58
2022/06/01 22:57:03;;;;;;;4.07;2.58;;;15.20;86.60;;;;;;10536750;28;20485;-61
2022/06/01 23:02:04;;;;;;;2.65;2.33;;;15.20;86.60;;;;;;10536740;28;20036;-61
2022/06/01 23:07:05;;;;;;;3.78;2.80;;;15.20;86.60;;;;;;10536708;28;20147;-59
2022/06/01 23:12:06;;;;;;;4.45;3.03;;;15.20;86.50;;;;;;10536284;28;20183;-62
2022/06/01 23:17:07;;;;;;;5.22;3.35;;;15.10;86.50;;;;;;10536250;28;20059;-60
2022/06/01 23:22:08;;;;;;;3.15;2.85;;;15.10;86.50;;;;;;10536126;28;20082;-58
2022/06/01 23:27:09;;;;;;;3.10;2.78;;;15.10;86.50;;;;;;10536051;28;20044;-61
2022/06/01 23:32:35;;;;;;;2.50;2.13;;;15.10;86.50;;;;;;10536261;28;20031;-60
2022/06/01 23:38:12;;;;;;;2.65;2.13;;;15.00;86.40;;;;;;10535771;28;20142;-60
2022/06/01 23:43:19;;;;;;;2.15;1.92;;;15.00;86.40;;;;;;10535453;28;20142;-62
2022/06/01 23:49:06;;;;;;;2.38;1.88;;;15.00;86.40;;;;;;10535920;28;20047;-62
2022/06/01 23:54:10;;;;;;;2.45;1.90;;;15.00;86.50;;;;;;10535213;28;20055;-62
2022/06/01 23:59:32;;;;;;;2.53;1.80;;;15.00;87.00;;;;;;10535811;28;20077;-58
